createdAt,value
2017-11-21T00:00:45.615Z,4.86
2017-11-21T00:01:45.607Z,4.77
2017-11-21T00:02:45.598Z,4.86
2017-11-21T00:03:45.598Z,4.87
2017-11-21T00:04:45.588Z,4.96
2017-11-21T00:05:45.591Z,4.82
2017-11-21T00:06:45.576Z,4.86
2017-11-21T00:07:45.568Z,4.93
2017-11-21T00:08:45.564Z,4.82
2017-11-21T00:09:45.561Z,4.90
2017-11-21T00:10:45.552Z,4.92
2017-11-21T00:11:45.548Z,4.94
2017-11-21T00:12:45.542Z,4.90
2017-11-21T00:13:45.546Z,4.90
2017-11-21T00:14:45.530Z,5.04
2017-11-21T00:15:45.525Z,4.94
2017-11-21T00:16:45.517Z,4.89
2017-11-21T00:17:45.514Z,4.90
2017-11-21T00:18:45.506Z,4.96
2017-11-21T00:19:45.500Z,5.05
2017-11-21T00:20:45.500Z,5.00
2017-11-21T00:21:45.485Z,5.00
2017-11-21T00:22:45.481Z,4.94
2017-11-21T00:23:45.476Z,4.89
2017-11-21T00:24:45.469Z,4.93
2017-11-21T00:25:45.465Z,4.93
2017-11-21T00:26:45.460Z,4.99
2017-11-21T00:27:45.448Z,4.94
2017-11-21T00:28:45.450Z,4.94
2017-11-21T00:29:45.434Z,4.94
2017-11-21T00:30:45.433Z,4.92
2017-11-21T00:31:45.425Z,4.92
2017-11-21T00:32:45.422Z,4.96
2017-11-21T00:33:45.414Z,4.97
2017-11-21T00:34:45.410Z,4.92
2017-11-21T00:35:45.405Z,4.92
2017-11-21T00:36:45.400Z,4.90
2017-11-21T00:37:45.384Z,4.90
2017-11-21T00:38:45.391Z,4.94
2017-11-21T00:39:45.389Z,4.90
2017-11-21T00:40:45.376Z,4.97
2017-11-21T00:41:45.374Z,4.96
2017-11-21T00:42:45.396Z,4.99
2017-11-21T00:43:45.354Z,4.93
2017-11-21T00:44:45.352Z,4.97
2017-11-21T00:45:45.343Z,4.97
2017-11-21T00:46:45.333Z,4.92
2017-11-21T00:47:45.332Z,4.92
2017-11-21T00:48:45.325Z,4.96
2017-11-21T00:49:45.320Z,4.93
2017-11-21T00:50:45.315Z,4.94
2017-11-21T00:51:45.309Z,4.96
2017-11-21T00:52:45.304Z,4.93
2017-11-21T00:53:45.300Z,4.97
2017-11-21T00:54:45.287Z,5.07
2017-11-21T00:55:45.300Z,5.05
2017-11-21T00:56:45.305Z,5.05
2017-11-21T00:57:45.278Z,5.00
2017-11-21T00:58:45.268Z,5.05
2017-11-21T00:59:45.261Z,5.11
2017-11-21T01:00:45.264Z,5.11
2017-11-21T01:01:45.248Z,5.10
2017-11-21T01:02:45.263Z,5.05
2017-11-21T01:03:45.249Z,5.00
2017-11-21T01:04:45.239Z,5.07
2017-11-21T01:05:45.229Z,5.10
2017-11-21T01:06:45.223Z,5.15
2017-11-21T01:07:45.215Z,5.12
2017-11-21T01:08:45.209Z,5.10
2017-11-21T01:09:45.202Z,5.12
2017-11-21T01:10:45.215Z,5.14
2017-11-21T01:11:45.192Z,5.08
2017-11-21T01:12:45.189Z,5.18
2017-11-21T01:13:45.188Z,5.18
2017-11-21T01:14:45.185Z,5.21
2017-11-21T01:15:45.168Z,5.12
2017-11-21T01:16:45.164Z,5.12
2017-11-21T01:17:45.151Z,5.14
2017-11-21T01:18:45.156Z,5.11
2017-11-21T01:19:45.149Z,5.17
2017-11-21T01:20:45.139Z,5.15
2017-11-21T01:21:45.131Z,5.21
2017-11-21T01:22:45.128Z,5.17
2017-11-21T01:23:45.121Z,5.18
2017-11-21T01:24:45.124Z,5.21
2017-11-21T01:25:45.113Z,5.25
2017-11-21T01:26:45.109Z,5.26
2017-11-21T01:27:45.099Z,5.23
2017-11-21T01:28:45.093Z,5.20
2017-11-21T01:29:45.154Z,5.26
2017-11-21T01:30:45.080Z,5.29
2017-11-21T01:31:45.075Z,5.32
2017-11-21T01:32:45.085Z,5.32
2017-11-21T01:33:45.067Z,5.29
2017-11-21T01:34:45.090Z,5.29
2017-11-21T01:35:45.137Z,5.32
2017-11-21T01:36:45.045Z,5.29
2017-11-21T01:37:45.050Z,5.36
2017-11-21T01:38:45.046Z,5.36
2017-11-21T01:39:45.031Z,5.38
2017-11-21T01:40:45.029Z,5.32
2017-11-21T01:41:45.046Z,5.29
2017-11-21T01:42:45.015Z,5.29
2017-11-21T01:43:45.008Z,5.32
2017-11-21T01:44:45.002Z,5.33
2017-11-21T01:45:45.004Z,5.35
2017-11-21T01:46:44.991Z,5.33
2017-11-21T01:47:44.985Z,5.32
2017-11-21T01:48:44.982Z,5.35
2017-11-21T01:49:44.971Z,5.33
2017-11-21T01:50:44.971Z,5.35
2017-11-21T01:51:44.957Z,5.35
2017-11-21T01:52:44.954Z,5.29
2017-11-21T01:53:44.952Z,5.29
2017-11-21T01:54:44.945Z,5.33
2017-11-21T01:55:44.943Z,5.32
2017-11-21T01:56:44.927Z,5.39
2017-11-21T01:57:44.923Z,5.32
2017-11-21T01:58:44.922Z,5.32
2017-11-21T01:59:44.914Z,5.36
2017-11-21T02:00:44.908Z,5.36
2017-11-21T02:01:44.906Z,5.33
2017-11-21T02:02:44.900Z,5.39
2017-11-21T02:03:44.894Z,5.47
2017-11-21T02:04:44.889Z,5.36
2017-11-21T02:05:44.877Z,5.44
2017-11-21T02:06:44.878Z,5.41
2017-11-21T02:07:44.898Z,5.41
2017-11-21T02:08:44.864Z,5.39
2017-11-21T02:09:44.862Z,5.43
2017-11-21T02:10:44.854Z,5.30
2017-11-21T02:11:44.851Z,5.29
2017-11-21T02:12:44.842Z,5.39
2017-11-21T02:13:44.836Z,5.43
2017-11-21T02:14:44.835Z,5.51
2017-11-21T02:15:44.825Z,5.39
2017-11-21T02:16:44.818Z,5.39
2017-11-21T02:17:44.812Z,5.39
2017-11-21T02:18:44.809Z,5.39
2017-11-21T02:19:44.803Z,5.46
2017-11-21T02:20:44.802Z,5.43
2017-11-21T02:21:44.784Z,5.47
2017-11-21T02:22:44.783Z,5.43
2017-11-21T02:23:44.794Z,5.50
2017-11-21T02:24:44.772Z,5.59
2017-11-21T02:25:44.766Z,5.68
2017-11-21T02:26:44.773Z,5.56
2017-11-21T02:27:44.764Z,5.57
2017-11-21T02:28:44.751Z,5.54
2017-11-21T02:29:44.738Z,5.48
2017-11-21T02:30:44.736Z,5.53
2017-11-21T02:31:44.733Z,5.48
2017-11-21T02:32:44.728Z,5.48
2017-11-21T02:33:44.723Z,5.38
2017-11-21T02:34:44.716Z,5.48
2017-11-21T02:35:44.714Z,5.51
2017-11-21T02:36:44.704Z,5.39
2017-11-21T02:37:44.701Z,5.50
2017-11-21T02:38:44.692Z,5.46
2017-11-21T02:39:44.707Z,5.54
2017-11-21T02:40:44.685Z,5.57
2017-11-21T02:41:44.677Z,5.56
2017-11-21T02:42:44.671Z,5.59
2017-11-21T02:43:44.671Z,5.59
2017-11-21T02:44:44.659Z,5.62
2017-11-21T02:45:44.654Z,5.65
2017-11-21T02:46:44.649Z,5.61
2017-11-21T02:47:44.644Z,5.65
2017-11-21T02:48:44.639Z,5.56
2017-11-21T02:49:44.632Z,5.57
2017-11-21T02:50:44.625Z,5.47
2017-11-21T02:51:44.626Z,5.59
2017-11-21T02:52:44.618Z,5.61
2017-11-21T02:53:44.609Z,5.65
2017-11-21T02:54:44.602Z,5.66
2017-11-21T02:55:44.609Z,5.56
2017-11-21T02:56:44.595Z,5.64
2017-11-21T02:57:44.586Z,5.56
2017-11-21T02:58:44.581Z,5.53
2017-11-21T02:59:44.577Z,5.54
2017-11-21T03:00:44.571Z,5.56
2017-11-21T03:01:44.584Z,5.53
2017-11-21T03:02:44.570Z,5.62
2017-11-21T03:03:44.554Z,5.64
2017-11-21T03:04:45.431Z,5.62
2017-11-21T03:05:45.427Z,5.62
2017-11-21T03:06:44.544Z,5.65
2017-11-21T03:07:44.537Z,5.68
2017-11-21T03:08:44.525Z,5.68
2017-11-21T03:09:44.520Z,5.66
2017-11-21T03:10:44.518Z,5.75
2017-11-21T03:11:44.511Z,5.68
2017-11-21T03:12:44.507Z,5.71
2017-11-21T03:13:44.497Z,5.72
2017-11-21T03:14:44.492Z,5.73
2017-11-21T03:15:44.490Z,5.79
2017-11-21T03:16:44.482Z,5.83
2017-11-21T03:17:44.479Z,5.83
2017-11-21T03:18:44.471Z,5.86
2017-11-21T03:19:44.470Z,5.87
2017-11-21T03:20:44.462Z,5.83
2017-11-21T03:21:44.455Z,5.84
2017-11-21T03:22:44.448Z,5.86
2017-11-21T03:23:44.445Z,5.82
2017-11-21T03:24:44.441Z,5.83
2017-11-21T03:25:44.435Z,5.79
2017-11-21T03:26:44.431Z,5.79
2017-11-21T03:27:44.420Z,5.82
2017-11-21T03:28:44.422Z,5.82
2017-11-21T03:29:44.413Z,5.76
2017-11-21T03:30:44.410Z,5.83
2017-11-21T03:31:44.402Z,5.82
2017-11-21T03:32:44.395Z,5.84
2017-11-21T03:33:44.390Z,5.87
2017-11-21T03:34:44.387Z,5.83
2017-11-21T03:35:44.377Z,5.86
2017-11-21T03:36:44.375Z,5.84
2017-11-21T03:37:44.367Z,5.83
2017-11-21T03:38:44.366Z,5.83
2017-11-21T03:39:44.359Z,5.75
2017-11-21T03:40:44.358Z,5.83
2017-11-21T03:41:44.346Z,5.83
2017-11-21T03:42:44.348Z,5.82
2017-11-21T03:43:44.333Z,5.93
2017-11-21T03:44:44.329Z,5.93
2017-11-21T03:45:44.333Z,5.89
2017-11-21T03:46:44.326Z,5.84
2017-11-21T03:47:44.322Z,5.90
2017-11-21T03:48:44.312Z,5.89
2017-11-21T03:49:44.304Z,5.86
2017-11-21T03:50:44.302Z,5.97
2017-11-21T03:51:44.296Z,6.02
2017-11-21T03:52:44.287Z,5.94
2017-11-21T03:53:44.286Z,6.02
2017-11-21T03:54:44.282Z,6.01
2017-11-21T03:55:44.277Z,6.09
2017-11-21T03:56:44.271Z,6.02
2017-11-21T03:57:44.264Z,6.04
2017-11-21T03:58:44.260Z,6.04
2017-11-21T03:59:44.260Z,6.08
2017-11-21T04:00:44.246Z,6.17
2017-11-21T04:01:44.238Z,6.11
2017-11-21T04:02:44.243Z,6.12
2017-11-21T04:03:44.231Z,6.19
2017-11-21T04:04:44.230Z,6.14
2017-11-21T04:05:44.226Z,6.17
2017-11-21T04:06:44.225Z,6.16
2017-11-21T04:07:44.213Z,6.14
2017-11-21T04:08:44.207Z,6.16
2017-11-21T04:09:44.201Z,6.14
2017-11-21T04:10:44.196Z,6.17
2017-11-21T04:11:44.193Z,6.16
2017-11-21T04:12:44.182Z,6.11
2017-11-21T04:13:44.179Z,6.16
2017-11-21T04:14:44.176Z,6.24
2017-11-21T04:15:44.171Z,6.17
2017-11-21T04:16:44.168Z,6.11
2017-11-21T04:17:44.159Z,6.24
2017-11-21T04:18:44.160Z,6.26
2017-11-21T04:19:44.149Z,6.16
2017-11-21T04:20:44.145Z,6.19
2017-11-21T04:21:44.152Z,6.26
2017-11-21T04:22:44.156Z,6.27
2017-11-21T04:23:44.131Z,6.24
2017-11-21T04:24:44.128Z,6.30
2017-11-21T04:25:44.115Z,6.30
2017-11-21T04:26:44.108Z,6.17
2017-11-21T04:27:44.143Z,6.20
2017-11-21T04:28:44.104Z,6.19
2017-11-21T04:29:44.101Z,6.20
2017-11-21T04:30:44.107Z,6.22
2017-11-21T04:31:44.093Z,6.16
2017-11-21T04:32:44.088Z,6.16
2017-11-21T04:33:44.080Z,6.30
2017-11-21T04:34:44.072Z,6.20
2017-11-21T04:35:44.064Z,6.30
2017-11-21T04:36:44.059Z,6.20
2017-11-21T04:37:44.060Z,6.28
2017-11-21T04:38:44.052Z,6.31
2017-11-21T04:39:44.045Z,6.35
2017-11-21T04:40:44.037Z,6.27
2017-11-21T04:41:44.036Z,6.24
2017-11-21T04:42:44.028Z,6.24
2017-11-21T04:43:44.028Z,6.28
2017-11-21T04:44:44.017Z,6.24
2017-11-21T04:45:44.014Z,6.36
2017-11-21T04:46:44.016Z,6.27
2017-11-21T04:47:44.003Z,6.24
2017-11-21T04:48:43.996Z,6.27
2017-11-21T04:49:43.997Z,6.28
2017-11-21T04:50:43.992Z,6.39
2017-11-21T04:51:43.983Z,6.35
2017-11-21T04:52:43.980Z,6.39
2017-11-21T04:53:43.972Z,6.46
2017-11-21T04:54:43.982Z,6.41
2017-11-21T04:55:43.965Z,6.44
2017-11-21T04:56:43.962Z,6.46
2017-11-21T04:57:43.953Z,6.45
2017-11-21T04:58:43.947Z,6.44
2017-11-21T04:59:43.942Z,6.54
2017-11-21T05:00:43.937Z,6.56
2017-11-21T05:01:43.929Z,6.70
2017-11-21T05:02:43.928Z,6.62
2017-11-21T05:03:43.924Z,6.60
2017-11-21T05:04:43.916Z,6.59
2017-11-21T05:05:43.911Z,6.57
2017-11-21T05:06:43.912Z,6.57
2017-11-21T05:07:43.906Z,6.54
2017-11-21T05:08:43.896Z,6.48
2017-11-21T05:09:43.891Z,6.44
2017-11-21T05:10:43.886Z,6.51
2017-11-21T05:11:43.882Z,6.46
2017-11-21T05:12:43.877Z,6.51
2017-11-21T05:13:43.870Z,6.57
2017-11-21T05:14:43.864Z,6.57
2017-11-21T05:15:43.860Z,6.51
2017-11-21T05:16:43.856Z,6.51
2017-11-21T05:17:43.853Z,6.59
2017-11-21T05:18:43.844Z,6.57
2017-11-21T05:19:43.842Z,6.59
2017-11-21T05:20:43.831Z,6.62
2017-11-21T05:21:43.825Z,6.66
2017-11-21T05:22:43.828Z,6.64
2017-11-21T05:23:43.819Z,6.67
2017-11-21T05:24:43.815Z,6.70
2017-11-21T05:25:43.818Z,6.67
2017-11-21T05:26:43.806Z,6.66
2017-11-21T05:27:43.809Z,6.77
2017-11-21T05:28:43.795Z,6.77
2017-11-21T05:29:43.800Z,6.77
2017-11-21T05:30:43.786Z,6.70
2017-11-21T05:31:43.786Z,6.62
2017-11-21T05:32:43.770Z,6.75
2017-11-21T05:33:43.773Z,6.77
2017-11-21T05:34:43.769Z,6.81
2017-11-21T05:35:43.767Z,6.81
2017-11-21T05:36:43.762Z,6.75
2017-11-21T05:37:43.749Z,6.72
2017-11-21T05:38:43.744Z,6.75
2017-11-21T05:39:43.746Z,6.72
2017-11-21T05:40:43.738Z,6.78
2017-11-21T05:41:43.729Z,6.84
2017-11-21T05:42:43.724Z,6.77
2017-11-21T05:43:43.727Z,6.74
2017-11-21T05:44:43.715Z,6.77
2017-11-21T05:45:43.712Z,6.70
2017-11-21T05:46:43.706Z,6.88
2017-11-21T05:47:43.703Z,6.95
2017-11-21T05:48:43.696Z,6.92
2017-11-21T05:49:43.690Z,6.99
2017-11-21T05:50:43.687Z,6.93
2017-11-21T05:51:43.685Z,6.82
2017-11-21T05:52:43.670Z,6.89
2017-11-21T05:53:43.672Z,6.93
2017-11-21T05:54:43.669Z,6.96
2017-11-21T05:55:43.656Z,6.95
2017-11-21T05:56:43.655Z,6.99
2017-11-21T05:57:43.659Z,7.02
2017-11-21T05:58:43.647Z,7.02
2017-11-21T05:59:43.645Z,7.03
2017-11-21T06:00:43.636Z,7.05
2017-11-21T06:01:43.636Z,7.00
2017-11-21T06:02:43.628Z,6.95
2017-11-21T06:03:43.622Z,6.89
2017-11-21T06:04:43.613Z,7.02
2017-11-21T06:05:43.615Z,6.93
2017-11-21T06:06:43.609Z,6.97
2017-11-21T06:07:43.599Z,6.95
2017-11-21T06:08:43.596Z,6.96
2017-11-21T06:09:43.590Z,7.06
2017-11-21T06:10:43.590Z,6.88
2017-11-21T06:11:43.589Z,6.93
2017-11-21T06:12:43.576Z,6.85
2017-11-21T06:13:43.571Z,6.97
2017-11-21T06:14:43.575Z,6.89
2017-11-21T06:15:43.564Z,7.03
2017-11-21T06:16:43.562Z,6.87
2017-11-21T06:17:43.578Z,6.89
2017-11-21T06:18:43.557Z,7.02
2017-11-21T06:19:43.557Z,7.02
2017-11-21T06:20:43.548Z,7.05
2017-11-21T06:21:43.535Z,7.06
2017-11-21T06:22:43.533Z,7.00
2017-11-21T06:23:43.527Z,7.13
2017-11-21T06:24:43.519Z,7.18
2017-11-21T06:25:43.514Z,7.13
2017-11-21T06:26:43.511Z,7.13
2017-11-21T06:27:43.515Z,7.24
2017-11-21T06:28:43.500Z,7.29
2017-11-21T06:29:43.496Z,7.17
2017-11-21T06:30:43.498Z,7.23
2017-11-21T06:31:43.486Z,7.11
2017-11-21T06:32:43.481Z,7.23
2017-11-21T06:33:43.477Z,7.14
2017-11-21T06:34:43.472Z,7.17
2017-11-21T06:35:43.467Z,7.18
2017-11-21T06:36:43.467Z,7.18
2017-11-21T06:37:43.459Z,7.15
2017-11-21T06:38:43.452Z,7.24
2017-11-21T06:39:43.450Z,7.24
2017-11-21T06:40:43.441Z,7.25
2017-11-21T06:41:43.438Z,7.38
2017-11-21T06:42:43.432Z,7.29
2017-11-21T06:43:43.430Z,7.11
2017-11-21T06:44:43.425Z,7.20
2017-11-21T06:45:43.422Z,7.24
2017-11-21T06:46:43.659Z,7.31
2017-11-21T06:47:43.413Z,7.28
2017-11-21T06:48:43.414Z,7.31
2017-11-21T06:49:43.422Z,7.23
2017-11-21T06:50:43.396Z,7.29
2017-11-21T06:51:43.391Z,7.15
2017-11-21T06:52:43.388Z,7.23
2017-11-21T06:53:43.383Z,7.23
2017-11-21T06:54:43.377Z,7.29
2017-11-21T06:55:43.372Z,7.25
2017-11-21T06:56:43.441Z,7.31
2017-11-21T06:57:43.362Z,7.24
2017-11-21T06:58:43.362Z,7.38
2017-11-21T06:59:43.352Z,7.32
2017-11-21T07:00:43.347Z,7.29
2017-11-21T07:01:43.348Z,7.40
2017-11-21T07:02:43.337Z,7.40
2017-11-21T07:03:43.330Z,7.45
2017-11-21T07:04:43.325Z,7.35
2017-11-21T07:05:43.324Z,7.42
2017-11-21T07:06:43.318Z,7.38
2017-11-21T07:07:43.318Z,7.35
2017-11-21T07:08:43.311Z,7.36
2017-11-21T07:09:43.309Z,7.40
2017-11-21T07:10:43.300Z,7.38
2017-11-21T07:11:43.303Z,7.36
2017-11-21T07:12:43.296Z,7.38
2017-11-21T07:13:43.297Z,7.42
2017-11-21T07:14:43.284Z,7.36
2017-11-21T07:15:43.289Z,7.39
2017-11-21T07:16:43.289Z,7.42
2017-11-21T07:17:43.292Z,7.45
2017-11-21T07:18:43.268Z,7.57
2017-11-21T07:19:43.285Z,7.54
2017-11-21T07:20:43.265Z,7.57
2017-11-21T07:21:43.279Z,7.50
2017-11-21T07:22:43.249Z,7.60
2017-11-21T07:23:43.245Z,7.60
2017-11-21T07:24:43.238Z,7.51
2017-11-21T07:25:43.484Z,7.60
2017-11-21T07:26:43.228Z,7.61
2017-11-21T07:27:43.234Z,7.57
2017-11-21T07:28:43.220Z,7.63
2017-11-21T07:29:43.221Z,7.69
2017-11-21T07:30:43.216Z,7.53
2017-11-21T07:31:43.212Z,7.53
2017-11-21T07:32:43.208Z,7.57
2017-11-21T07:33:43.202Z,7.69
2017-11-21T07:34:43.193Z,7.67
2017-11-21T07:35:43.192Z,7.73
2017-11-21T07:36:43.188Z,7.67
2017-11-21T07:37:43.186Z,7.75
2017-11-21T07:38:43.178Z,7.79
2017-11-21T07:39:43.175Z,7.72
2017-11-21T07:40:43.170Z,7.76
2017-11-21T07:41:43.160Z,7.69
2017-11-21T07:42:43.164Z,7.76
2017-11-21T07:43:43.156Z,7.70
2017-11-21T07:44:43.155Z,7.72
2017-11-21T07:45:43.148Z,7.72
2017-11-21T07:46:43.146Z,7.77
2017-11-21T07:47:43.139Z,7.75
2017-11-21T07:48:43.139Z,7.73
2017-11-21T07:49:43.130Z,7.80
2017-11-21T07:50:43.127Z,7.79
2017-11-21T07:51:43.126Z,7.83
2017-11-21T07:52:43.119Z,7.91
2017-11-21T07:53:43.128Z,7.91
2017-11-21T07:54:43.116Z,7.88
2017-11-21T07:55:43.106Z,7.97
2017-11-21T07:56:43.103Z,7.87
2017-11-21T07:57:43.109Z,7.95
2017-11-21T07:58:43.090Z,7.91
2017-11-21T07:59:43.096Z,7.91
2017-11-21T08:00:43.083Z,7.90
2017-11-21T08:01:43.086Z,7.88
2017-11-21T08:02:43.074Z,7.97
2017-11-21T08:03:43.074Z,8.00
2017-11-21T08:04:43.070Z,8.01
2017-11-21T08:05:43.068Z,8.01
2017-11-21T08:06:43.059Z,8.00
2017-11-21T08:07:43.066Z,7.94
2017-11-21T08:08:43.055Z,7.97
2017-11-21T08:09:43.052Z,7.98
2017-11-21T08:10:43.047Z,8.05
2017-11-21T08:11:43.044Z,8.00
2017-11-21T08:12:43.039Z,7.95
2017-11-21T08:13:43.034Z,8.03
2017-11-21T08:14:43.029Z,8.01
2017-11-21T08:15:43.022Z,8.01
2017-11-21T08:16:43.040Z,7.97
2017-11-21T08:17:43.018Z,8.01
2017-11-21T08:18:43.016Z,8.01
2017-11-21T08:19:43.019Z,8.06
2017-11-21T08:20:43.005Z,7.98
2017-11-21T08:21:43.016Z,8.05
2017-11-21T08:22:42.999Z,8.05
2017-11-21T08:23:42.999Z,8.05
2017-11-21T08:24:42.986Z,8.09
2017-11-21T08:25:42.988Z,8.09
2017-11-21T08:26:42.981Z,8.01
2017-11-21T08:27:42.980Z,8.08
2017-11-21T08:28:42.982Z,8.08
2017-11-21T08:29:42.970Z,8.09
2017-11-21T08:30:42.968Z,8.08
2017-11-21T08:31:42.961Z,8.06
2017-11-21T08:32:42.961Z,8.10
2017-11-21T08:33:42.959Z,8.09
2017-11-21T08:34:42.953Z,8.05
2017-11-21T08:35:42.941Z,8.10
2017-11-21T08:36:42.948Z,8.10
2017-11-21T08:37:42.937Z,8.08
2017-11-21T08:38:42.946Z,8.18
2017-11-21T08:39:42.937Z,8.19
2017-11-21T08:40:42.932Z,8.19
2017-11-21T08:41:42.928Z,8.16
2017-11-21T08:42:42.927Z,8.18
2017-11-21T08:43:42.924Z,8.27
2017-11-21T08:44:42.913Z,8.26
2017-11-21T08:45:42.908Z,8.23
2017-11-21T08:46:42.911Z,8.26
2017-11-21T08:47:42.905Z,8.37
2017-11-21T08:48:42.903Z,8.38
2017-11-21T08:49:42.894Z,8.34
2017-11-21T08:50:42.893Z,8.38
2017-11-21T08:51:42.888Z,8.36
2017-11-21T08:52:42.882Z,8.41
2017-11-21T08:53:42.884Z,8.37
2017-11-21T08:54:42.883Z,8.37
2017-11-21T08:55:42.876Z,8.31
2017-11-21T08:56:42.868Z,8.31
2017-11-21T08:57:42.868Z,8.31
2017-11-21T08:58:42.873Z,8.34
2017-11-21T08:59:42.874Z,8.31
2017-11-21T09:00:42.876Z,8.37
2017-11-21T09:01:42.858Z,8.42
2017-11-21T09:02:42.847Z,8.41
2017-11-21T09:03:42.847Z,8.38
2017-11-21T09:04:42.842Z,8.37
2017-11-21T09:05:42.835Z,8.41
2017-11-21T09:06:42.838Z,8.38
2017-11-21T09:07:42.834Z,8.45
2017-11-21T09:08:42.833Z,8.41
2017-11-21T09:09:42.825Z,8.41
2017-11-21T09:10:42.822Z,8.46
2017-11-21T09:11:42.822Z,8.52
2017-11-21T09:12:42.813Z,8.45
2017-11-21T09:13:42.809Z,8.46
2017-11-21T09:14:42.813Z,8.55
2017-11-21T09:15:42.805Z,8.46
2017-11-21T09:16:42.801Z,8.58
2017-11-21T09:17:42.798Z,8.64
2017-11-21T09:18:42.808Z,8.63
2017-11-21T09:19:42.793Z,8.64
2017-11-21T09:20:42.788Z,8.66
2017-11-21T09:21:42.787Z,8.73
2017-11-21T09:22:42.784Z,8.81
2017-11-21T09:23:42.780Z,8.71
2017-11-21T09:24:42.776Z,8.74
2017-11-21T09:25:42.771Z,8.79
2017-11-21T09:26:42.776Z,8.71
2017-11-21T09:27:42.767Z,8.81
2017-11-21T09:28:42.766Z,8.79
2017-11-21T09:29:42.760Z,8.81
2017-11-21T09:30:42.759Z,8.71
2017-11-21T09:31:42.755Z,8.78
2017-11-21T09:32:42.752Z,8.79
2017-11-21T09:33:42.747Z,8.78
2017-11-21T09:34:42.756Z,8.81
2017-11-21T09:35:42.746Z,8.73
2017-11-21T09:36:42.741Z,8.78
2017-11-21T09:37:42.739Z,8.85
2017-11-21T09:38:42.751Z,8.82
2017-11-21T09:39:42.729Z,8.85
2017-11-21T09:40:42.729Z,8.89
2017-11-21T09:41:42.724Z,8.87
2017-11-21T09:42:42.722Z,8.88
2017-11-21T09:43:42.718Z,8.91
2017-11-21T09:44:42.719Z,8.81
2017-11-21T09:45:42.711Z,8.81
2017-11-21T09:46:42.710Z,8.88
2017-11-21T09:47:42.716Z,8.89
2017-11-21T09:48:42.737Z,8.88
2017-11-21T09:49:42.697Z,8.85
2017-11-21T09:50:42.699Z,8.87
2017-11-21T09:51:42.693Z,8.82
2017-11-21T09:52:42.697Z,8.82
2017-11-21T09:53:42.690Z,8.85
2017-11-21T09:54:42.685Z,8.81
2017-11-21T09:55:42.713Z,8.78
2017-11-21T09:56:42.680Z,8.78
2017-11-21T09:57:42.707Z,8.87
2017-11-21T09:58:42.730Z,8.71
2017-11-21T09:59:42.675Z,8.74
2017-11-21T10:00:42.666Z,8.88
2017-11-21T10:01:42.668Z,8.89
2017-11-21T10:02:42.661Z,8.87
2017-11-21T10:03:42.657Z,8.97
2017-11-21T10:04:42.656Z,8.94
2017-11-21T10:05:42.652Z,8.94
2017-11-21T10:06:42.646Z,8.92
2017-11-21T10:07:42.647Z,8.97
2017-11-21T10:08:42.650Z,8.94
2017-11-21T10:09:42.639Z,8.94
2017-11-21T10:10:42.635Z,8.85
2017-11-21T10:11:42.632Z,8.87
2017-11-21T10:12:42.633Z,8.82
2017-11-21T10:13:42.634Z,8.95
2017-11-21T10:14:42.654Z,8.92
2017-11-21T10:15:42.622Z,8.99
2017-11-21T10:16:42.621Z,8.92
2017-11-21T10:17:42.620Z,8.94
2017-11-21T10:18:42.619Z,8.95
2017-11-21T10:19:42.614Z,8.94
2017-11-21T10:20:42.609Z,8.94
2017-11-21T10:21:42.609Z,9.03
2017-11-21T10:22:42.606Z,9.00
2017-11-21T10:23:42.602Z,8.94
2017-11-21T10:24:42.599Z,8.97
2017-11-21T10:25:42.595Z,9.02
2017-11-21T10:26:42.596Z,9.02
2017-11-21T10:27:42.588Z,9.02
2017-11-21T10:28:42.588Z,8.99
2017-11-21T10:29:42.586Z,8.94
2017-11-21T10:30:42.581Z,8.99
2017-11-21T10:31:42.580Z,8.95
2017-11-21T10:32:42.574Z,8.94
2017-11-21T10:33:42.581Z,8.85
2017-11-21T10:34:42.565Z,8.81
2017-11-21T10:35:42.569Z,8.79
2017-11-21T10:36:42.559Z,8.74
2017-11-21T10:37:42.567Z,8.78
2017-11-21T10:38:42.556Z,8.74
2017-11-21T10:39:42.556Z,8.76
2017-11-21T10:40:42.551Z,8.79
2017-11-21T10:41:42.550Z,8.71
2017-11-21T10:42:42.546Z,8.69
2017-11-21T10:43:42.539Z,8.69
2017-11-21T10:44:42.541Z,8.70
2017-11-21T10:45:42.533Z,8.67
2017-11-21T10:46:42.535Z,8.66
2017-11-21T10:47:42.538Z,8.61
2017-11-21T10:48:42.529Z,8.64
2017-11-21T10:49:42.527Z,8.60
2017-11-21T10:50:42.522Z,8.61
2017-11-21T10:51:42.517Z,8.66
2017-11-21T10:52:42.523Z,8.61
2017-11-21T10:53:42.512Z,8.63
2017-11-21T10:54:42.521Z,8.67
2017-11-21T10:55:42.503Z,8.71
2017-11-21T10:56:42.503Z,8.64
2017-11-21T10:57:42.499Z,8.74
2017-11-21T10:58:42.498Z,8.76
2017-11-21T10:59:42.492Z,8.73
2017-11-21T11:00:42.498Z,8.71
2017-11-21T11:01:42.494Z,8.79
2017-11-21T11:02:42.484Z,8.73
2017-11-21T11:03:42.493Z,8.76
2017-11-21T11:04:42.488Z,8.78
2017-11-21T11:05:42.471Z,8.79
2017-11-21T11:06:42.464Z,8.78
2017-11-21T11:07:42.481Z,8.73
2017-11-21T11:08:42.458Z,8.89
2017-11-21T11:09:42.472Z,8.71
2017-11-21T11:10:42.457Z,8.81
2017-11-21T11:11:42.454Z,8.84
2017-11-21T11:12:42.452Z,8.78
2017-11-21T11:13:42.445Z,8.91
2017-11-21T11:14:42.453Z,8.85
2017-11-21T11:15:42.446Z,8.88
2017-11-21T11:16:42.443Z,8.88
2017-11-21T11:17:42.461Z,8.85
2017-11-21T11:18:42.433Z,8.87
2017-11-21T11:19:42.431Z,8.87
2017-11-21T11:20:42.429Z,8.84
2017-11-21T11:21:42.424Z,8.82
2017-11-21T11:22:42.419Z,8.89
2017-11-21T11:23:42.428Z,8.95
2017-11-21T11:24:42.412Z,8.89
2017-11-21T11:25:42.412Z,8.94
2017-11-21T11:26:42.409Z,8.91
2017-11-21T11:27:42.406Z,8.88
2017-11-21T11:28:42.397Z,8.97
2017-11-21T11:29:42.400Z,8.94
2017-11-21T11:30:42.398Z,9.02
2017-11-21T11:31:42.392Z,9.00
2017-11-21T11:32:42.391Z,8.97
2017-11-21T11:33:42.388Z,8.99
2017-11-21T11:34:42.383Z,8.99
2017-11-21T11:35:42.377Z,9.03
2017-11-21T11:36:42.377Z,9.00
2017-11-21T11:37:42.377Z,9.03
2017-11-21T11:38:42.367Z,9.06
2017-11-21T11:39:42.374Z,8.97
2017-11-21T11:40:42.364Z,9.13
2017-11-21T11:41:42.363Z,9.16
2017-11-21T11:42:42.358Z,9.21
2017-11-21T11:43:42.360Z,9.11
2017-11-21T11:44:42.361Z,9.18
2017-11-21T11:45:42.351Z,9.19
2017-11-21T11:46:42.354Z,9.19
2017-11-21T11:47:42.350Z,9.13
2017-11-21T11:48:42.356Z,8.99
2017-11-21T11:49:42.338Z,9.11
2017-11-21T11:50:42.337Z,9.13
2017-11-21T11:51:42.333Z,9.11
2017-11-21T11:52:42.328Z,9.06
2017-11-21T11:53:42.329Z,9.04
2017-11-21T11:54:42.330Z,9.06
2017-11-21T11:55:42.322Z,9.03
2017-11-21T11:56:42.325Z,9.04
2017-11-21T11:57:42.328Z,9.03
2017-11-21T11:58:42.316Z,9.08
2017-11-21T11:59:42.313Z,9.03
2017-11-21T12:00:42.315Z,9.00
2017-11-21T12:01:42.307Z,9.13
2017-11-21T12:02:42.303Z,9.16
2017-11-21T12:03:42.306Z,9.13
2017-11-21T12:04:42.298Z,9.16
2017-11-21T12:05:42.294Z,9.16
2017-11-21T12:06:42.296Z,9.08
2017-11-21T12:07:42.292Z,9.10
2017-11-21T12:08:42.300Z,9.11
2017-11-21T12:09:42.292Z,9.19
2017-11-21T12:10:42.279Z,9.18
2017-11-21T12:11:42.276Z,9.18
2017-11-21T12:12:42.279Z,9.11
2017-11-21T12:13:42.271Z,9.13
2017-11-21T12:14:42.273Z,9.16
2017-11-21T12:15:42.266Z,9.18
2017-11-21T12:16:42.264Z,9.14
2017-11-21T12:17:42.262Z,9.16
2017-11-21T12:18:42.261Z,9.16
2017-11-21T12:19:42.255Z,9.14
2017-11-21T12:20:42.254Z,9.19
2017-11-21T12:21:42.250Z,9.13
2017-11-21T12:22:42.254Z,9.16
2017-11-21T12:23:42.243Z,9.11
2017-11-21T12:24:42.240Z,9.10
2017-11-21T12:25:42.241Z,9.08
2017-11-21T12:26:42.236Z,9.11
2017-11-21T12:27:42.231Z,9.04
2017-11-21T12:28:42.228Z,9.02
2017-11-21T12:29:42.226Z,9.06
2017-11-21T12:30:42.221Z,9.10
2017-11-21T12:31:42.234Z,9.06
2017-11-21T12:32:42.219Z,9.02
2017-11-21T12:33:42.216Z,9.13
2017-11-21T12:34:42.206Z,9.18
2017-11-21T12:35:42.213Z,9.21
2017-11-21T12:36:42.205Z,9.16
2017-11-21T12:37:42.202Z,9.22
2017-11-21T12:38:42.200Z,9.22
2017-11-21T12:39:42.199Z,9.16
2017-11-21T12:40:42.190Z,9.19
2017-11-21T12:41:42.192Z,9.25
2017-11-21T12:42:42.191Z,9.16
2017-11-21T12:43:42.177Z,9.23
2017-11-21T12:44:42.180Z,9.19
2017-11-21T12:45:42.178Z,9.22
2017-11-21T12:46:42.175Z,9.22
2017-11-21T12:47:42.172Z,9.25
2017-11-21T12:48:42.169Z,9.28
2017-11-21T12:49:42.170Z,9.29
2017-11-21T12:50:42.167Z,9.25
2017-11-21T12:51:42.164Z,9.22
2017-11-21T12:52:42.159Z,9.21
2017-11-21T12:53:42.157Z,9.21
2017-11-21T12:54:42.157Z,9.28
2017-11-21T12:55:42.150Z,9.25
2017-11-21T12:56:42.153Z,9.23
2017-11-21T12:57:42.148Z,9.25
2017-11-21T12:58:42.135Z,9.31
2017-11-21T12:59:42.139Z,9.29
2017-11-21T13:00:42.134Z,9.26
2017-11-21T13:01:42.146Z,9.29
2017-11-21T13:02:42.129Z,9.29
2017-11-21T13:03:42.132Z,9.32
2017-11-21T13:04:42.122Z,9.32
2017-11-21T13:05:42.119Z,9.36
2017-11-21T13:06:42.120Z,9.32
2017-11-21T13:07:42.114Z,9.25
2017-11-21T13:08:42.111Z,9.21
2017-11-21T13:09:42.112Z,9.19
2017-11-21T13:10:42.105Z,9.21
2017-11-21T13:11:42.103Z,9.19
2017-11-21T13:12:42.100Z,9.14
2017-11-21T13:13:42.095Z,9.18
2017-11-21T13:14:42.090Z,9.13
2017-11-21T13:15:42.094Z,9.14
2017-11-21T13:16:42.091Z,9.13
2017-11-21T13:17:42.085Z,9.16
2017-11-21T13:18:42.082Z,9.13